Time;durP1;ratioP1;P1;durP2;ratioP2;P2;SDS_P1;SDS_P2;PMS_P1;PMS_P2;Temp;Humidity;BMP_temperature;BMP_pressure;BME280_temperature;BME280_humidity;BME280_pressure;Samples;Min_cycle;Max_cycle;Signal;HPM_P1;HPM_P2
2022/04/21 00:00:28;;;;;;;12.65;7.70;;;7.90;99.90;;;;;;5067761;28;20126;-82
2022/04/21 00:02:54;;;;;;;11.85;7.25;;;7.90;99.90;;;;;;5068159;28;20094;-83
2022/04/21 00:05:20;;;;;;;12.13;7.43;;;7.90;99.90;;;;;;5067530;28;20086;-83
2022/04/21 00:07:48;;;;;;;10.73;7.72;;;8.60;99.90;;;;;;5065640;28;20039;-82
2022/04/21 00:10:14;;;;;;;13.75;8.00;;;8.40;99.90;;;;;;5049569;28;20050;-83
2022/04/21 00:12:40;;;;;;;15.45;8.60;;;7.80;99.90;;;;;;5066782;28;20109;-82
2022/04/21 00:15:07;;;;;;;21.25;9.35;;;8.00;99.90;;;;;;5050441;28;20040;-81
2022/04/21 00:17:33;;;;;;;15.07;8.73;;;7.80;99.90;;;;;;5029337;28;20041;-84
2022/04/21 00:19:59;;;;;;;13.88;8.52;;;8.50;99.90;;;;;;5066512;28;20044;-83
2022/04/21 00:25:10;;;;;;;14.05;8.98;;;8.20;99.90;;;;;;5047380;28;20113;-83
2022/04/21 00:27:40;;;;;;;14.13;9.18;;;8.60;99.90;;;;;;5033864;28;20047;-83
2022/04/21 00:30:07;;;;;;;17.10;9.68;;;7.80;99.90;;;;;;5048686;28;20127;-83
2022/04/21 00:32:40;;;;;;;16.15;9.32;;;7.70;99.90;;;;;;5033134;28;20047;-83
2022/04/21 00:35:11;;;;;;;12.45;9.20;;;7.70;99.90;;;;;;5067151;28;20068;-83
2022/04/21 00:37:44;;;;;;;16.63;10.13;;;7.70;99.90;;;;;;5032357;28;20035;-83
2022/04/21 00:40:11;;;;;;;16.80;9.90;;;7.70;99.90;;;;;;5047475;28;20375;-82
2022/04/21 00:42:37;;;;;;;15.90;9.85;;;7.70;99.90;;;;;;5047500;28;20039;-84
2022/04/21 00:45:03;;;;;;;16.17;9.50;;;7.70;99.90;;;;;;5028633;28;20466;-82
2022/04/21 00:47:32;;;;;;;16.27;10.50;;;7.60;99.90;;;;;;5064223;28;20040;-83
2022/04/21 00:49:58;;;;;;;16.65;10.20;;;7.60;99.90;;;;;;5046012;28;20051;-83
2022/04/21 00:52:25;;;;;;;16.17;10.07;;;7.60;99.90;;;;;;5066079;28;20028;-82
2022/04/21 00:54:51;;;;;;;18.67;10.45;;;7.90;99.90;;;;;;5065800;28;20045;-82
2022/04/21 00:57:16;;;;;;;16.58;10.45;;;7.50;99.90;;;;;;5031908;28;20039;-83
2022/04/21 00:59:45;;;;;;;17.55;10.55;;;7.90;99.90;;;;;;5067266;28;20372;-83
2022/04/21 01:04:59;;;;;;;17.80;11.48;;;7.40;99.90;;;;;;5066253;28;20087;-82
2022/04/21 01:07:25;;;;;;;16.00;10.70;;;7.40;99.90;;;;;;5031231;28;20491;-84
2022/04/21 01:09:54;;;;;;;21.30;11.80;;;7.40;99.90;;;;;;5049438;28;20056;-83
2022/04/21 01:12:20;;;;;;;20.00;11.23;;;8.00;99.90;;;;;;5027043;28;20095;-83
2022/04/21 01:14:45;;;;;;;19.73;11.13;;;7.40;99.90;;;;;;5030904;28;20053;-84
2022/04/21 01:17:11;;;;;;;18.00;11.38;;;7.50;99.90;;;;;;5086512;28;20037;-81
2022/04/21 01:19:37;;;;;;;16.65;11.02;;;7.10;99.90;;;;;;5042682;28;20056;-85
2022/04/21 01:22:03;;;;;;;18.20;11.68;;;7.70;99.90;;;;;;5065368;28;20048;-82
2022/04/21 01:24:29;;;;;;;17.55;11.60;;;7.50;99.90;;;;;;5046015;28;20035;-83
2022/04/21 01:26:57;;;;;;;16.88;10.65;;;7.40;99.90;;;;;;5067354;28;20161;-82
2022/04/21 01:29:23;;;;;;;18.08;11.00;;;7.90;99.90;;;;;;5031997;28;20544;-83
2022/04/21 01:31:48;;;;;;;16.48;11.07;;;7.90;99.90;;;;;;5051041;28;20049;-82
2022/04/21 01:34:14;;;;;;;18.08;11.43;;;8.20;99.90;;;;;;5024867;28;20040;-84
2022/04/21 01:41:08;;;;;;;21.38;11.90;;;7.50;99.90;;;;;;5031747;28;20075;-81
2022/04/21 01:42:14;;;;;;;25.27;13.02;;;7.60;99.90;;;;;;5065326;28;20052;-83
2022/04/21 01:44:40;;;;;;;27.17;12.63;;;7.60;99.90;;;;;;5030977;28;20048;-83
2022/04/21 01:47:06;;;;;;;18.67;12.43;;;7.80;99.90;;;;;;5044915;28;20222;-82
2022/04/21 01:49:32;;;;;;;24.00;12.77;;;7.50;99.90;;;;;;5031951;28;20183;-82
2022/04/21 01:51:57;;;;;;;20.42;13.43;;;7.30;99.90;;;;;;5048159;28;20041;-83
2022/04/21 01:54:23;;;;;;;19.10;12.93;;;7.30;99.90;;;;;;5048347;28;20071;-83
2022/04/21 01:56:48;;;;;;;23.40;13.43;;;7.30;99.90;;;;;;5050702;28;20033;-83
2022/04/21 01:59:14;;;;;;;22.65;13.20;;;7.60;99.90;;;;;;5011488;28;20057;-83
2022/04/21 02:01:40;;;;;;;24.80;12.82;;;7.20;99.90;;;;;;5048730;28;20427;-83
2022/04/21 02:04:05;;;;;;;21.75;12.18;;;7.30;99.90;;;;;;5044612;28;20429;-83
2022/04/21 02:06:31;;;;;;;18.08;12.68;;;7.20;99.90;;;;;;5047692;28;20043;-83
2022/04/21 02:08:58;;;;;;;23.85;11.90;;;7.20;99.90;;;;;;5048278;28;20057;-84
2022/04/21 02:11:24;;;;;;;18.83;12.73;;;7.60;99.90;;;;;;5029204;28;20231;-83
2022/04/21 02:13:50;;;;;;;22.95;12.73;;;7.80;99.90;;;;;;5046888;28;20052;-84
2022/04/21 02:16:15;;;;;;;21.58;12.85;;;7.10;99.90;;;;;;5044976;28;20049;-83
2022/04/21 02:18:41;;;;;;;21.67;12.90;;;7.20;99.90;;;;;;5047748;28;20128;-85
2022/04/21 02:21:07;;;;;;;21.42;13.45;;;7.20;99.90;;;;;;5046238;28;20424;-84
2022/04/21 02:23:32;;;;;;;20.77;12.98;;;7.70;99.90;;;;;;5030614;28;20045;-84
2022/04/21 02:25:58;;;;;;;24.92;13.10;;;7.10;99.90;;;;;;5048640;28;20095;-81
2022/04/21 02:28:25;;;;;;;22.67;13.15;;;7.30;99.90;;;;;;5053210;28;20041;-83
2022/04/21 02:30:51;;;;;;;21.55;13.20;;;7.30;99.90;;;;;;5025204;28;20082;-84
2022/04/21 02:33:16;;;;;;;25.70;13.38;;;7.10;99.90;;;;;;5044951;28;20547;-83
2022/04/21 02:35:43;;;;;;;22.90;12.75;;;7.00;99.90;;;;;;5030645;28;20044;-83
2022/04/21 02:38:08;;;;;;;19.67;12.80;;;7.60;99.90;;;;;;5030263;28;20750;-84
2022/04/21 02:40:34;;;;;;;21.02;12.07;;;7.00;99.90;;;;;;5028329;28;20109;-81
2022/04/21 02:43:00;;;;;;;20.92;11.85;;;7.00;99.90;;;;;;5046639;28;20036;-81
2022/04/21 02:45:25;;;;;;;19.00;11.90;;;6.50;99.90;;;;;;5044918;28;20083;-79
2022/04/21 02:47:52;;;;;;;17.38;11.45;;;7.20;99.90;;;;;;5055096;28;20128;-82
2022/04/21 02:50:18;;;;;;;17.60;10.98;;;7.40;99.90;;;;;;5049753;28;20072;-83
2022/04/21 02:52:44;;;;;;;17.33;10.70;;;7.10;99.90;;;;;;5043725;28;20036;-83
2022/04/21 02:57:58;;;;;;;19.98;10.73;;;7.50;99.90;;;;;;5047129;28;20055;-83
2022/04/21 03:00:24;;;;;;;14.50;10.23;;;7.40;99.90;;;;;;5026875;28;20863;-84
2022/04/21 03:02:50;;;;;;;14.60;10.10;;;7.40;99.90;;;;;;5045374;28;20120;-83
2022/04/21 03:05:16;;;;;;;18.85;9.82;;;7.30;99.90;;;;;;5045241;28;20041;-84
2022/04/21 03:07:42;;;;;;;16.15;9.75;;;7.40;99.90;;;;;;5026087;28;20499;-82
2022/04/21 03:10:08;;;;;;;14.70;9.70;;;7.60;99.90;;;;;;5047230;28;20556;-84
2022/04/21 03:12:34;;;;;;;14.85;9.77;;;7.50;99.90;;;;;;5049607;28;20059;-83
2022/04/21 03:15:01;;;;;;;14.45;9.00;;;8.20;99.90;;;;;;5046228;28;20040;-83
2022/04/21 03:17:29;;;;;;;19.13;9.82;;;7.60;99.90;;;;;;5032705;28;20100;-84
2022/04/21 03:19:55;;;;;;;14.23;8.57;;;7.50;99.90;;;;;;5023101;28;20422;-84
2022/04/21 03:25:07;;;;;;;14.35;8.88;;;7.50;99.90;;;;;;5049598;28;20109;-82
2022/04/21 03:27:33;;;;;;;15.23;8.02;;;7.50;99.90;;;;;;5025309;28;20492;-84
2022/04/21 03:30:00;;;;;;;14.57;8.70;;;7.50;99.90;;;;;;5047092;28;20128;-83
2022/04/21 03:32:26;;;;;;;12.63;8.85;;;8.00;99.90;;;;;;5047041;28;20911;-84
2022/04/21 03:34:53;;;;;;;17.85;8.95;;;7.50;99.90;;;;;;5046391;28;20115;-84
2022/04/21 03:37:20;;;;;;;17.10;8.75;;;8.20;99.90;;;;;;5043588;28;20415;-83
2022/04/21 03:39:46;;;;;;;14.40;8.50;;;7.90;99.90;;;;;;5031050;28;20039;-83
2022/04/21 03:42:31;;;;;;;17.30;8.93;;;8.10;99.90;;;;;;5044187;28;20472;-83
2022/04/21 03:44:57;;;;;;;15.32;9.15;;;7.40;99.90;;;;;;5029786;28;20425;-83
2022/04/21 03:47:23;;;;;;;16.67;9.35;;;7.30;99.90;;;;;;5027505;28;20175;-83
2022/04/21 03:49:49;;;;;;;12.48;8.63;;;8.00;99.90;;;;;;5040852;28;20135;-84
2022/04/21 03:52:17;;;;;;;13.93;8.93;;;7.30;99.90;;;;;;5045706;28;20048;-83
2022/04/21 03:54:43;;;;;;;23.60;9.35;;;7.30;99.90;;;;;;5049809;28;20029;-84
2022/04/21 03:57:09;;;;;;;12.65;8.98;;;7.30;99.90;;;;;;5045954;28;20480;-84
2022/04/21 03:59:35;;;;;;;14.88;9.45;;;7.30;99.90;;;;;;5042268;28;20219;-81
2022/04/21 04:02:07;;;;;;;19.52;9.70;;;7.90;99.90;;;;;;5042403;28;20072;-83
2022/04/21 04:04:35;;;;;;;13.73;8.90;;;7.20;99.90;;;;;;5042538;28;20538;-83
2022/04/21 04:12:35;;;;;;;15.13;9.07;;;7.40;99.90;;;;;;4984260;28;20045;-80
2022/04/21 04:15:03;;;;;;;13.82;9.18;;;7.20;99.90;;;;;;4962923;28;20086;-83
2022/04/21 04:17:29;;;;;;;13.27;9.30;;;7.10;99.90;;;;;;4967158;28;20073;-82
2022/04/21 04:19:56;;;;;;;15.55;9.25;;;7.40;99.90;;;;;;4948924;28;20143;-84
2022/04/21 04:22:21;;;;;;;15.43;9.32;;;7.20;99.90;;;;;;4968367;28;20129;-83
2022/04/21 04:24:50;;;;;;;13.35;9.07;;;8.00;99.90;;;;;;4936078;28;20570;-84
2022/04/21 04:27:16;;;;;;;12.00;8.52;;;7.20;99.90;;;;;;4967140;28;20065;-84
2022/04/21 04:29:41;;;;;;;14.18;8.45;;;7.70;99.90;;;;;;4952781;28;20054;-83
2022/04/21 04:32:07;;;;;;;13.45;8.75;;;7.70;99.90;;;;;;4951151;28;20386;-82
2022/04/21 04:34:33;;;;;;;18.83;9.40;;;7.10;99.90;;;;;;4964297;28;20042;-83
2022/04/21 04:36:58;;;;;;;13.48;9.70;;;7.50;99.90;;;;;;4951846;28;20047;-83
2022/04/21 04:39:24;;;;;;;15.20;9.20;;;7.10;99.90;;;;;;4970764;28;20038;-83
2022/04/21 04:44:34;;;;;;;13.85;9.65;;;8.00;99.90;;;;;;4949741;28;20094;-83
2022/04/21 04:47:00;;;;;;;15.82;8.70;;;7.40;99.90;;;;;;4945154;28;20059;-83
2022/04/21 04:49:26;;;;;;;14.13;9.48;;;7.60;99.90;;;;;;4986659;28;20049;-85
2022/04/21 04:51:52;;;;;;;16.63;9.15;;;7.10;99.90;;;;;;5023298;28;20059;-82
2022/04/21 04:54:18;;;;;;;15.80;9.35;;;7.20;99.90;;;;;;5027654;28;20044;-84
2022/04/21 04:56:45;;;;;;;15.40;9.93;;;7.00;99.90;;;;;;5025477;28;20464;-84
2022/04/21 04:59:29;;;;;;;13.68;9.50;;;7.60;99.90;;;;;;5052861;28;20057;-85
2022/04/21 05:01:55;;;;;;;16.67;9.82;;;7.00;99.90;;;;;;5031396;28;20050;-85
2022/04/21 05:04:21;;;;;;;16.85;10.10;;;7.00;99.90;;;;;;5046591;28;20086;-86
2022/04/21 05:06:51;;;;;;;19.02;9.57;;;7.10;99.90;;;;;;5049129;28;20048;-86
2022/04/21 05:09:20;;;;;;;22.25;9.80;;;7.70;99.90;;;;;;5048840;28;20043;-85
2022/04/21 05:11:52;;;;;;;13.40;9.30;;;7.50;99.90;;;;;;5033680;28;20041;-84
2022/04/21 05:14:19;;;;;;;14.40;10.02;;;7.10;99.90;;;;;;5049192;28;20037;-87
2022/04/21 05:16:48;;;;;;;18.10;9.95;;;7.10;99.90;;;;;;5030537;28;20041;-83
2022/04/21 05:19:16;;;;;;;17.10;9.70;;;7.20;99.90;;;;;;5048345;28;20147;-85
2022/04/21 05:21:43;;;;;;;16.42;9.30;;;7.20;99.90;;;;;;5029231;28;20064;-85
2022/04/21 05:24:13;;;;;;;15.20;9.65;;;7.30;99.90;;;;;;5047570;28;20056;-83
2022/04/21 05:26:42;;;;;;;14.55;9.60;;;7.30;99.90;;;;;;5028253;28;20051;-83
2022/04/21 05:32:30;;;;;;;14.48;9.23;;;7.40;99.90;;;;;;4989021;28;20049;-82
2022/04/21 05:34:57;;;;;;;13.60;9.35;;;7.40;99.90;;;;;;4978168;28;20538;-84
2022/04/21 05:37:25;;;;;;;15.48;9.13;;;7.50;99.90;;;;;;4986931;28;20058;-78
2022/04/21 05:39:51;;;;;;;13.48;8.70;;;7.60;99.90;;;;;;5003214;28;20045;-79
2022/04/21 05:42:23;;;;;;;14.05;8.18;;;7.70;99.90;;;;;;5002840;28;20042;-79
2022/04/21 05:44:52;;;;;;;12.20;8.18;;;7.70;99.90;;;;;;5001800;28;20487;-80
2022/04/21 05:47:19;;;;;;;15.15;8.95;;;7.70;99.90;;;;;;4987093;28;20424;-80
2022/04/21 05:49:45;;;;;;;18.75;8.95;;;7.80;99.90;;;;;;4981456;28;20129;-79
2022/04/21 05:52:13;;;;;;;14.43;8.35;;;7.90;99.90;;;;;;4998001;28;20213;-80
2022/04/21 05:54:39;;;;;;;14.68;8.93;;;7.90;99.90;;;;;;4989451;28;20041;-81
2022/04/21 05:57:05;;;;;;;13.45;8.38;;;7.90;99.90;;;;;;4983033;28;20154;-82
2022/04/21 05:59:32;;;;;;;9.82;8.23;;;8.00;99.90;;;;;;4985185;28;20061;-82
2022/04/21 06:01:59;;;;;;;14.27;8.68;;;8.00;99.90;;;;;;5001308;28;20042;-83
2022/04/21 06:04:24;;;;;;;17.95;9.18;;;8.60;99.90;;;;;;4986266;28;20038;-82
2022/04/21 06:06:50;;;;;;;15.05;8.63;;;8.40;99.90;;;;;;4973602;28;20402;-81
2022/04/21 06:09:16;;;;;;;14.88;8.82;;;8.30;99.90;;;;;;5024051;28;20042;-82
2022/04/21 06:11:46;;;;;;;14.88;8.38;;;8.90;99.90;;;;;;4988700;28;20057;-83
2022/04/21 06:14:15;;;;;;;13.02;7.35;;;8.50;99.90;;;;;;4995264;28;20053;-81
2022/04/21 06:16:41;;;;;;;14.18;7.20;;;8.70;99.90;;;;;;5007673;28;20135;-81
2022/04/21 06:19:07;;;;;;;9.55;6.70;;;8.70;99.90;;;;;;5003639;28;20420;-82
2022/04/21 06:21:32;;;;;;;14.30;7.10;;;8.80;99.90;;;;;;5025143;28;20034;-82
2022/04/21 06:23:59;;;;;;;10.63;6.53;;;8.90;99.90;;;;;;4981378;28;20115;-82
2022/04/21 06:26:25;;;;;;;10.82;6.65;;;9.00;99.90;;;;;;5002463;28;22052;-83
2022/04/21 06:28:57;;;;;;;8.85;6.20;;;9.00;99.90;;;;;;5004124;28;20045;-83
2022/04/21 06:31:22;;;;;;;13.25;6.22;;;9.10;99.90;;;;;;5006803;28;20037;-82
2022/04/21 06:33:48;;;;;;;10.35;6.18;;;9.30;99.90;;;;;;5010717;28;20073;-83
2022/04/21 06:36:14;;;;;;;10.13;6.18;;;9.20;99.90;;;;;;5028523;28;20045;-83
2022/04/21 06:38:40;;;;;;;9.52;5.97;;;9.40;99.90;;;;;;4994894;28;20042;-83
2022/04/21 06:41:05;;;;;;;8.68;6.15;;;9.80;99.90;;;;;;5008311;28;20046;-81
2022/04/21 06:49:18;;;;;;;7.57;5.50;;;9.90;99.90;;;;;;5047595;28;20060;-81
2022/04/21 06:51:44;;;;;;;7.97;4.43;;;9.60;99.90;;;;;;5028907;28;20045;-82
2022/04/21 06:54:09;;;;;;;16.95;5.53;;;10.40;99.90;;;;;;5027804;28;20068;-82
2022/04/21 06:56:35;;;;;;;8.45;5.20;;;10.70;99.90;;;;;;5044125;28;20118;-85
2022/04/21 06:59:01;;;;;;;14.32;5.28;;;11.10;99.90;;;;;;5030621;28;20138;-83
2022/04/21 07:05:15;;;;;;;8.43;4.03;;;11.10;99.90;;;;;;5061018;28;20028;-79
2022/04/21 07:07:42;;;;;;;8.57;4.30;;;11.50;99.90;;;;;;5052497;28;20456;-82
2022/04/21 07:10:09;;;;;;;8.23;4.32;;;11.60;99.90;;;;;;5047833;28;20041;-85
2022/04/21 07:12:35;;;;;;;8.10;4.35;;;11.80;99.90;;;;;;5046193;28;20061;-85
2022/04/21 07:15:05;;;;;;;8.45;3.38;;;12.00;99.90;;;;;;5029991;28;20126;-85
2022/04/21 07:17:31;;;;;;;10.70;3.70;;;12.20;99.90;;;;;;5033799;28;20044;-83
2022/04/21 07:19:59;;;;;;;8.82;3.95;;;12.20;99.90;;;;;;5038170;28;20079;-78
2022/04/21 07:22:26;;;;;;;8.88;4.25;;;12.60;99.90;;;;;;5034964;28;20057;-88
2022/04/21 07:25:10;;;;;;;12.25;4.43;;;12.20;99.90;;;;;;5017042;28;20051;-85
2022/04/21 07:27:37;;;;;;;14.45;4.53;;;12.20;99.90;;;;;;5011210;28;20076;-87
2022/04/21 07:30:43;;;;;;;8.07;3.60;;;12.50;99.90;;;;;;5003619;28;20051;-86
2022/04/21 07:33:09;;;;;;;6.38;3.58;;;12.60;99.90;;;;;;4993861;28;20081;-83
2022/04/21 07:35:34;;;;;;;6.75;3.55;;;12.60;99.90;;;;;;5010352;28;20072;-81
2022/04/21 07:38:00;;;;;;;5.70;2.92;;;12.70;99.90;;;;;;4986054;28;20094;-86
2022/04/21 07:40:38;;;;;;;4.22;2.80;;;12.80;99.90;;;;;;5008795;28;20113;-87
2022/04/21 07:43:13;;;;;;;4.68;3.00;;;12.70;99.90;;;;;;4998365;28;20591;-87
2022/04/21 07:45:49;;;;;;;6.20;3.38;;;12.70;99.90;;;;;;5014163;28;20050;-91
2022/04/21 07:48:17;;;;;;;4.88;3.10;;;12.60;99.90;;;;;;4997954;28;20061;-85
2022/04/21 07:50:46;;;;;;;7.53;3.30;;;12.90;99.90;;;;;;4993163;28;20053;-85
2022/04/21 07:53:14;;;;;;;3.95;2.30;;;12.50;99.90;;;;;;5011214;28;20063;-83
2022/04/21 07:55:45;;;;;;;3.50;2.45;;;12.70;99.90;;;;;;5034077;28;20052;-84
2022/04/21 07:58:15;;;;;;;4.45;2.20;;;12.80;99.90;;;;;;5025361;28;20049;-87
2022/04/21 08:00:40;;;;;;;5.68;2.35;;;12.80;99.90;;;;;;5033689;28;20037;-87
2022/04/21 08:03:07;;;;;;;4.70;2.60;;;13.60;99.90;;;;;;5047192;28;20069;-87
2022/04/21 08:05:33;;;;;;;2.92;1.92;;;13.10;99.90;;;;;;5035025;28;20041;-86
2022/04/21 08:07:59;;;;;;;5.22;2.20;;;13.00;99.90;;;;;;5055107;28;20041;-86
2022/04/21 08:10:53;;;;;;;3.88;2.33;;;13.10;99.90;;;;;;5051714;28;20047;-89
2022/04/21 08:13:39;;;;;;;2.30;2.00;;;13.10;99.90;;;;;;5043983;28;20044;-91
2022/04/21 08:19:46;;;;;;;3.60;2.25;;;13.10;99.90;;;;;;5064480;28;20518;-80
2022/04/21 08:22:14;;;;;;;4.05;2.38;;;13.40;99.90;;;;;;5054246;28;20049;-80
2022/04/21 08:32:56;;;;;;;4.20;2.20;;;12.80;99.90;;;;;;5044899;28;20059;-83
2022/04/21 08:35:22;;;;;;;4.50;2.28;;;12.80;99.90;;;;;;5049281;28;20067;-83
2022/04/21 08:37:50;;;;;;;4.15;2.35;;;12.90;99.90;;;;;;5033834;28;20452;-82
2022/04/21 08:40:16;;;;;;;6.00;2.40;;;13.00;99.90;;;;;;5032203;28;20213;-82
2022/04/21 08:42:45;;;;;;;2.88;2.42;;;13.30;99.90;;;;;;5049826;28;20128;-82
2022/04/21 08:45:13;;;;;;;8.40;2.78;;;13.10;99.90;;;;;;5050512;28;20033;-81
2022/04/21 08:47:46;;;;;;;8.20;2.00;;;13.00;99.90;;;;;;5048090;28;20048;-80
2022/04/21 08:50:14;;;;;;;5.88;2.60;;;13.10;99.90;;;;;;5069009;28;20329;-80
2022/04/21 08:52:41;;;;;;;5.80;2.35;;;13.20;99.90;;;;;;5049372;28;20058;-79
2022/04/21 08:55:08;;;;;;;3.25;2.10;;;13.20;99.90;;;;;;5049757;28;20044;-81
2022/04/21 08:57:35;;;;;;;6.32;2.30;;;13.30;99.90;;;;;;5037831;28;20041;-79
2022/04/21 09:00:06;;;;;;;5.03;2.65;;;13.40;99.90;;;;;;5051648;28;20060;-80
2022/04/21 09:02:44;;;;;;;5.93;2.22;;;13.50;99.90;;;;;;5049751;28;20101;-82
2022/04/21 09:05:10;;;;;;;5.53;2.50;;;13.60;99.90;;;;;;5069962;28;20167;-85
2022/04/21 09:08:03;;;;;;;4.97;2.28;;;13.50;99.90;;;;;;5069902;28;20036;-80
2022/04/21 09:10:32;;;;;;;3.38;2.55;;;13.40;99.90;;;;;;5028354;28;20383;-80
2022/04/21 09:13:01;;;;;;;6.97;2.72;;;13.50;99.90;;;;;;5047591;28;20052;-80
2022/04/21 09:15:36;;;;;;;3.70;2.70;;;13.60;99.90;;;;;;5034872;28;20932;-82
2022/04/21 09:18:13;;;;;;;10.32;3.17;;;13.60;99.90;;;;;;5027461;28;20049;-83
2022/04/21 09:20:43;;;;;;;6.75;2.97;;;13.90;99.90;;;;;;5050468;28;20044;-78
2022/04/21 09:23:11;;;;;;;6.20;2.80;;;13.80;99.90;;;;;;5050252;28;20492;-80
2022/04/21 09:25:50;;;;;;;6.40;3.10;;;13.80;99.90;;;;;;5032303;28;20325;-84
2022/04/21 09:28:28;;;;;;;3.80;2.80;;;13.90;99.90;;;;;;5034331;28;20063;-83
2022/04/21 09:31:01;;;;;;;8.40;2.95;;;13.90;99.90;;;;;;5037168;28;20544;-82
2022/04/21 09:33:30;;;;;;;8.35;3.53;;;14.00;99.90;;;;;;5035797;28;20048;-82
2022/04/21 09:36:01;;;;;;;6.55;3.10;;;14.00;99.90;;;;;;5037060;28;20044;-81
2022/04/21 09:38:27;;;;;;;5.25;3.47;;;14.10;99.90;;;;;;5056768;28;20341;-82
2022/04/21 09:40:53;;;;;;;6.88;3.45;;;14.20;99.90;;;;;;5049768;28;20040;-80
2022/04/21 09:43:30;;;;;;;4.57;3.28;;;14.40;99.90;;;;;;5043121;28;20057;-81
2022/04/21 09:46:22;;;;;;;6.90;3.65;;;14.50;99.90;;;;;;5044821;28;20057;-82
2022/04/21 09:48:52;;;;;;;4.47;2.95;;;14.60;99.90;;;;;;5052887;28;20044;-83
2022/04/21 09:51:24;;;;;;;4.60;3.20;;;14.70;99.90;;;;;;5050103;28;20032;-83
2022/04/21 09:54:01;;;;;;;5.43;3.15;;;14.80;99.90;;;;;;5024873;28;20374;-82
2022/04/21 09:56:36;;;;;;;4.35;3.05;;;14.70;99.90;;;;;;5035798;28;20087;-82
2022/04/21 09:59:04;;;;;;;5.38;3.03;;;14.90;99.90;;;;;;5049382;28;20098;-82
2022/04/21 10:01:30;;;;;;;4.60;3.17;;;14.90;99.90;;;;;;5053766;28;20047;-76
2022/04/21 10:03:56;;;;;;;5.55;3.17;;;15.10;99.90;;;;;;5033416;28;20044;-78
2022/04/21 10:06:23;;;;;;;5.78;3.03;;;15.30;99.90;;;;;;5046037;28;20435;-77
2022/04/21 10:08:52;;;;;;;4.07;2.47;;;15.40;99.90;;;;;;5046953;28;20056;-76
2022/04/21 10:11:28;;;;;;;4.00;2.65;;;15.40;99.90;;;;;;5029834;28;20033;-85
2022/04/21 10:13:55;;;;;;;6.93;2.90;;;15.50;99.90;;;;;;5051869;28;20060;-83
2022/04/21 10:16:23;;;;;;;5.40;2.90;;;15.40;99.90;;;;;;5037877;28;20045;-82
2022/04/21 10:18:54;;;;;;;5.88;3.17;;;15.60;99.90;;;;;;5040084;28;20049;-79
2022/04/21 10:21:42;;;;;;;7.90;2.30;;;15.90;99.90;;;;;;5049460;28;20147;-79
2022/04/21 10:24:10;;;;;;;3.97;2.13;;;15.90;99.90;;;;;;5047206;28;20051;-78
2022/04/21 10:26:38;;;;;;;3.42;2.30;;;15.80;99.90;;;;;;5031513;28;20029;-78
2022/04/21 10:29:10;;;;;;;8.07;2.90;;;15.80;99.90;;;;;;5050262;28;20047;-80
2022/04/21 10:35:04;;;;;;;4.40;2.92;;;16.00;99.90;;;;;;5071028;28;20500;-85
2022/04/21 10:37:32;;;;;;;5.38;2.90;;;16.10;99.90;;;;;;5036163;28;20124;-82
2022/04/21 10:40:04;;;;;;;5.43;2.60;;;16.70;99.90;;;;;;5051401;28;20498;-82
2022/04/21 10:42:50;;;;;;;4.90;2.50;;;16.70;99.90;;;;;;5038550;28;20033;-83
2022/04/21 10:46:04;;;;;;;4.15;2.47;;;17.00;99.90;;;;;;5048915;28;20045;-83
2022/04/21 10:48:45;;;;;;;11.35;2.50;;;17.00;99.20;;;;;;5055379;28;20059;-84
2022/04/21 10:51:11;;;;;;;4.78;2.58;;;17.00;99.30;;;;;;5035844;28;20049;-77
2022/04/21 10:59:30;;;;;;;4.97;2.33;;;16.70;99.10;;;;;;5055352;28;20138;-77
2022/04/21 11:02:14;;;;;;;5.57;2.20;;;17.20;99.10;;;;;;5038293;28;20041;-76
2022/04/21 11:04:40;;;;;;;4.97;2.00;;;17.60;98.70;;;;;;5054184;28;20117;-77
2022/04/21 11:07:09;;;;;;;3.65;2.53;;;17.70;97.80;;;;;;5041030;28;20521;-77
2022/04/21 11:09:48;;;;;;;8.50;2.40;;;17.20;98.80;;;;;;5036179;28;20048;-77
2022/04/21 11:12:16;;;;;;;6.18;2.40;;;17.70;99.20;;;;;;5026293;28;20103;-77
2022/04/21 11:14:44;;;;;;;5.93;2.40;;;17.60;98.00;;;;;;5054336;28;20092;-78
2022/04/21 11:17:10;;;;;;;8.00;2.20;;;17.40;97.80;;;;;;5053350;28;20052;-78
2022/04/21 11:19:52;;;;;;;3.15;2.47;;;18.10;97.40;;;;;;5052503;28;20056;-85
2022/04/21 11:22:39;;;;;;;2.35;2.10;;;17.60;97.30;;;;;;5034059;28;20508;-85
2022/04/21 11:25:06;;;;;;;5.68;2.10;;;17.40;97.70;;;;;;5034300;28;20105;-82
2022/04/21 11:27:34;;;;;;;5.50;2.35;;;17.20;97.50;;;;;;5034362;28;20484;-86
2022/04/21 11:30:03;;;;;;;4.50;2.10;;;17.30;97.30;;;;;;5049951;28;20080;-85
2022/04/21 11:32:28;;;;;;;3.00;1.90;;;17.40;97.90;;;;;;5033700;28;20084;-85
2022/04/21 11:34:59;;;;;;;3.47;2.20;;;17.30;97.80;;;;;;5068354;28;20064;-87
2022/04/21 11:37:50;;;;;;;3.15;2.25;;;17.80;97.70;;;;;;5050347;28;20142;-85
2022/04/21 11:40:22;;;;;;;5.32;2.35;;;17.80;97.80;;;;;;5049606;28;20049;-86
2022/04/21 11:42:50;;;;;;;7.15;2.67;;;18.00;97.50;;;;;;5036959;28;20368;-85
2022/04/21 11:45:20;;;;;;;4.03;2.38;;;17.70;96.60;;;;;;5053056;28;20044;-86
2022/04/21 11:47:46;;;;;;;3.97;2.60;;;18.30;97.10;;;;;;5036051;28;20093;-87
2022/04/21 11:50:17;;;;;;;5.95;2.50;;;18.20;96.90;;;;;;5035904;28;20095;-86
2022/04/21 11:52:47;;;;;;;6.55;2.50;;;18.30;96.90;;;;;;5036121;28;20060;-86
2022/04/21 11:55:16;;;;;;;2.95;2.40;;;17.90;96.60;;;;;;5036798;28;20056;-86
2022/04/21 11:57:43;;;;;;;3.50;2.20;;;18.00;95.50;;;;;;5053854;28;20047;-86
2022/04/21 12:00:10;;;;;;;4.50;2.47;;;17.90;97.30;;;;;;5041033;28;20132;-85
2022/04/21 12:06:37;;;;;;;3.10;2.35;;;18.30;96.50;;;;;;5071454;28;20062;-88
2022/04/21 12:09:04;;;;;;;4.93;2.70;;;18.50;96.80;;;;;;5049347;28;20148;-87
2022/04/21 12:11:30;;;;;;;7.90;2.80;;;18.40;95.90;;;;;;5037057;28;20048;-87
2022/04/21 12:14:00;;;;;;;5.18;2.65;;;18.10;96.40;;;;;;5054517;28;20052;-86
2022/04/21 12:16:47;;;;;;;4.75;2.70;;;18.10;96.00;;;;;;5038823;28;20049;-82
2022/04/21 12:19:33;;;;;;;3.55;2.60;;;18.40;96.10;;;;;;5069927;28;20490;-82
2022/04/21 12:22:09;;;;;;;5.28;2.55;;;18.70;96.20;;;;;;5048879;28;20110;-84
2022/04/21 12:24:43;;;;;;;4.07;2.40;;;18.80;96.10;;;;;;5040190;28;20071;-80
2022/04/21 12:27:16;;;;;;;5.07;2.60;;;18.80;95.40;;;;;;5031832;28;20063;-82
2022/04/21 12:29:50;;;;;;;4.40;2.83;;;18.30;94.90;;;;;;5045832;28;20056;-83
2022/04/21 12:32:39;;;;;;;6.90;2.42;;;18.30;94.10;;;;;;5049227;28;20084;-85
2022/04/21 12:35:10;;;;;;;5.18;2.70;;;18.40;95.50;;;;;;5033727;28;20052;-84
2022/04/21 12:38:50;;;;;;;9.23;2.63;;;19.10;95.10;;;;;;5052238;28;20059;-84
2022/04/21 12:40:40;;;;;;;5.93;3.10;;;18.70;95.30;;;;;;5067755;28;20059;-83
2022/04/21 12:43:09;;;;;;;5.63;2.78;;;18.10;94.70;;;;;;5049273;28;20036;-83
2022/04/21 12:45:36;;;;;;;4.30;2.88;;;18.20;95.40;;;;;;5050417;28;20048;-83
2022/04/21 12:48:02;;;;;;;6.60;3.22;;;18.40;96.30;;;;;;5046368;28;20056;-81
2022/04/21 12:50:30;;;;;;;4.72;3.08;;;18.60;96.70;;;;;;5044280;28;20071;-85
2022/04/21 12:52:57;;;;;;;7.05;2.83;;;18.70;95.40;;;;;;5031066;28;20052;-82
2022/04/21 12:55:24;;;;;;;4.65;2.70;;;19.10;95.80;;;;;;5045132;28;20136;-80
2022/04/21 12:58:02;;;;;;;3.70;2.85;;;19.40;95.30;;;;;;5045230;28;20431;-78
2022/04/21 13:00:33;;;;;;;8.35;2.80;;;18.90;94.40;;;;;;5024664;28;20059;-83
2022/04/21 13:03:01;;;;;;;8.68;2.80;;;18.90;95.40;;;;;;5020107;28;20530;-81
2022/04/21 13:05:27;;;;;;;3.35;2.95;;;18.90;95.10;;;;;;5027611;28;20112;-82
2022/04/21 13:07:53;;;;;;;5.30;3.22;;;19.10;95.50;;;;;;5042467;28;20045;-80
2022/04/21 13:10:21;;;;;;;10.32;3.53;;;18.60;96.10;;;;;;5045842;28;20068;-81
2022/04/21 13:12:47;;;;;;;7.65;3.30;;;18.50;96.70;;;;;;5035030;28;20055;-82
2022/04/21 13:15:13;;;;;;;4.40;3.10;;;18.60;96.80;;;;;;5045076;28;20080;-79
2022/04/21 13:17:48;;;;;;;5.10;3.50;;;19.10;96.90;;;;;;5025794;28;20094;-80
2022/04/21 13:21:52;;;;;;;;;;;19.20;96.30;;;;;;5046190;28;20056;-78
2022/04/21 13:22:59;;;;;;;;;;;18.60;97.10;;;;;;5066074;28;19924;-77
2022/04/21 13:25:26;;;;;;;6.00;3.15;;;19.00;97.50;;;;;;5030596;28;19924;-80
2022/04/21 13:27:53;;;;;;;4.20;2.97;;;18.70;96.20;;;;;;5033056;28;20073;-81
2022/04/21 13:30:18;;;;;;;3.85;2.80;;;18.60;96.80;;;;;;5032407;28;20063;-80
2022/04/21 13:35:47;;;;;;;7.35;2.90;;;18.50;95.60;;;;;;5048039;28;20143;-82
2022/04/21 13:38:16;;;;;;;9.48;3.40;;;18.40;97.00;;;;;;5067233;28;20044;-80
2022/04/21 13:40:43;;;;;;;6.43;3.78;;;18.50;97.90;;;;;;5040219;28;20127;-79
2022/04/21 13:43:09;;;;;;;6.32;3.22;;;18.20;97.90;;;;;;5036278;28;20036;-83
2022/04/21 13:45:38;;;;;;;4.95;3.47;;;18.00;98.90;;;;;;5037300;28;20551;-78
2022/04/21 13:48:07;;;;;;;8.93;3.97;;;18.20;99.00;;;;;;5038706;28;20093;-80
2022/04/21 13:50:34;;;;;;;6.78;3.40;;;18.10;98.70;;;;;;5043083;28;20044;-83
2022/04/21 13:52:59;;;;;;;5.78;3.47;;;18.20;98.80;;;;;;5026772;28;20048;-81
2022/04/21 13:55:25;;;;;;;5.95;3.63;;;17.70;99.90;;;;;;5049414;28;20051;-78
2022/04/21 13:57:57;;;;;;;9.82;3.25;;;17.50;99.80;;;;;;5053960;28;20109;-81